This is the latest recevied weather packets stored in our database for station/object F4JSG-10. If no packets are shown the sender has not sent any weather packets the latest 1 day(s).
| Time | Temp. | Humidity | Pressure | Rain* | Wind** | Luminosity | Snow |
|---|---|---|---|---|---|---|---|
| 1788593503 | 21.67° C | 89% | 996.3 hPa | - | - | - | - |
| 1788593464 | 21.67° C | 89% | 996.3 hPa | - | - | - | - |
| 1788593399 | 21.67° C | 89% | 996.3 hPa | - | - | - | - |
| 1788593343 | 21.67° C | 89% | 996.3 hPa | - | - | - | - |
| 1788593285 | 21.67° C | 90% | 996.3 hPa | - | - | - | - |
| 1788593145 | 21.67° C | 91% | 996.4 hPa | - | - | - | - |
| 1788593075 | 21.67° C | 91% | 996.4 hPa | - | - | - | - |
| 1788593011 | 21.67° C | 91% | 996.4 hPa | - | - | - | - |
| 1788592239 | 20.56° C | 100% | 996.2 hPa | - | - | - | - |
| 1788592200 | 20.56° C | 100% | 996.2 hPa | - | - | - | - |
| 1788592128 | 20.56° C | 100% | 996.2 hPa | - | - | - | - |
| 1788592089 | 20.56° C | 100% | 996.2 hPa | - | - | - | - |
| 1788592007 | 20.56° C | 100% | 996.2 hPa | - | - | - | - |
| 1788591903 | 20° C | 100% | 996.1 hPa | - | - | - | - |
| 1788591846 | 20° C | 100% | 996 hPa | - | - | - | - |
| 1788585218 | 18.89° C | 100% | 994.9 hPa | - | - | - | - |
| 1788584318 | 18.89° C | 100% | 994.8 hPa | - | - | - | - |
| 1788583418 | 19.44° C | 99% | 994.6 hPa | - | - | - | - |
| 1788582518 | 19.44° C | 97% | 994.6 hPa | - | - | - | - |
| 1788581618 | 20° C | 91% | 994 hPa | - | - | - | - |
| 1788580718 | 20.56° C | 84% | 993.8 hPa | - | - | - | - |
| 1788579818 | 21.11° C | 77% | 994 hPa | - | - | - | - |
| 1788578918 | 21.11° C | 75% | 993.6 hPa | - | - | - | - |
| 1788578018 | 22.22° C | 65% | 993 hPa | - | - | - | - |
| 1788577118 | 22.22° C | 62% | 993.3 hPa | - | - | - | - |
* Rain since midnight (hover to see other rain measurements)
** Current wind speed in m/s (hover to see current wind gust speed)